Terminal Aerodrome Forecast
Issued by NWS Atlanta, GA

Home | Current Version | Previous Version | Text Only | Print | Product List | Glossary On
Versions: 1 2 3 4 5 6 7 8 9 10 11 12 13 14 15 16 17 18 19 20 21 22 23 24 25 26 27 28
000
FTUS42 KFFC 050315 AAA
TAFAHN
TAF AMD
KAHN 050315Z 0503/0524 04003KT P6SM VCSH SCT050 SCT250
      TEMPO 0503/0505 VRB10G20KT 5SM -TSRA BKN040CB
     FM050500 04005KT P6SM SCT110
     FM051000 08007KT P6SM BKN050
     FM051600 08006KT P6SM VCSH BKN050 PROB30 0518/0524 5SM -TSRA
      BKN045CB=

USA.gov is the U.S. government's official web portal to all federal, state and local government web resources and services.